sensor_id;sensor_type;location;lat;lon;timestamp;temperature;humidity
41953;DHT22;63613;28.200;112.870;2023-06-05T00:00:25;27.20;60.40
41953;DHT22;63613;28.200;112.870;2023-06-05T00:02:52;27.30;60.40
41953;DHT22;63613;28.200;112.870;2023-06-05T00:05:19;27.30;60.40
41953;DHT22;63613;28.200;112.870;2023-06-05T00:07:50;27.30;60.40
41953;DHT22;63613;28.200;112.870;2023-06-05T00:10:16;27.30;60.40
41953;DHT22;63613;28.200;112.870;2023-06-05T00:12:43;27.30;60.30
41953;DHT22;63613;28.200;112.870;2023-06-05T00:15:41;27.30;60.40
41953;DHT22;63613;28.200;112.870;2023-06-05T00:18:08;27.30;60.40
41953;DHT22;63613;28.200;112.870;2023-06-05T00:20:35;27.20;60.40
41953;DHT22;63613;28.200;112.870;2023-06-05T00:23:02;27.20;60.50
41953;DHT22;63613;28.200;112.870;2023-06-05T00:25:29;27.20;60.50
41953;DHT22;63613;28.200;112.870;2023-06-05T00:27:56;27.20;60.50
41953;DHT22;63613;28.200;112.870;2023-06-05T00:30:22;27.20;60.50
41953;DHT22;63613;28.200;112.870;2023-06-05T00:32:49;27.20;60.60
41953;DHT22;63613;28.200;112.870;2023-06-05T00:35:19;27.20;60.50
41953;DHT22;63613;28.200;112.870;2023-06-05T00:37:46;27.20;60.60
41953;DHT22;63613;28.200;112.870;2023-06-05T00:40:13;27.20;60.60
41953;DHT22;63613;28.200;112.870;2023-06-05T00:42:40;27.20;60.60
41953;DHT22;63613;28.200;112.870;2023-06-05T00:45:07;27.20;60.60
41953;DHT22;63613;28.200;112.870;2023-06-05T00:47:34;27.20;60.60
41953;DHT22;63613;28.200;112.870;2023-06-05T00:50:01;27.30;60.60
41953;DHT22;63613;28.200;112.870;2023-06-05T00:52:28;27.30;60.60
41953;DHT22;63613;28.200;112.870;2023-06-05T00:54:55;27.30;60.60
41953;DHT22;63613;28.200;112.870;2023-06-05T00:57:22;27.20;60.70
41953;DHT22;63613;28.200;112.870;2023-06-05T00:59:53;27.20;60.60
41953;DHT22;63613;28.200;112.870;2023-06-05T01:02:20;27.20;60.70
41953;DHT22;63613;28.200;112.870;2023-06-05T01:04:47;27.20;60.70
41953;DHT22;63613;28.200;112.870;2023-06-05T01:07:15;27.20;60.70
41953;DHT22;63613;28.200;112.870;2023-06-05T01:09:43;27.20;60.70
41953;DHT22;63613;28.200;112.870;2023-06-05T01:12:40;27.20;60.70
41953;DHT22;63613;28.200;112.870;2023-06-05T01:15:08;27.20;60.70
41953;DHT22;63613;28.200;112.870;2023-06-05T01:17:35;27.20;60.70
41953;DHT22;63613;28.200;112.870;2023-06-05T01:20:03;27.20;60.70
41953;DHT22;63613;28.200;112.870;2023-06-05T01:22:34;27.20;60.70
41953;DHT22;63613;28.200;112.870;2023-06-05T01:25:08;27.20;60.70
41953;DHT22;63613;28.200;112.870;2023-06-05T01:27:51;27.20;60.70
41953;DHT22;63613;28.200;112.870;2023-06-05T01:34:00;27.20;60.80
41953;DHT22;63613;28.200;112.870;2023-06-05T01:36:30;27.20;60.70
41953;DHT22;63613;28.200;112.870;2023-06-05T01:38:58;27.20;60.80
41953;DHT22;63613;28.200;112.870;2023-06-05T01:41:27;27.20;60.70
41953;DHT22;63613;28.200;112.870;2023-06-05T01:43:55;27.20;60.70
41953;DHT22;63613;28.200;112.870;2023-06-05T01:46:23;27.20;60.70
41953;DHT22;63613;28.200;112.870;2023-06-05T01:48:50;27.20;60.70
41953;DHT22;63613;28.200;112.870;2023-06-05T01:51:18;27.20;60.70
41953;DHT22;63613;28.200;112.870;2023-06-05T01:53:46;27.20;60.70
41953;DHT22;63613;28.200;112.870;2023-06-05T01:56:16;27.20;60.70
41953;DHT22;63613;28.200;112.870;2023-06-05T01:58:47;27.20;60.80
41953;DHT22;63613;28.200;112.870;2023-06-05T02:01:14;27.20;60.80
41953;DHT22;63613;28.200;112.870;2023-06-05T02:03:42;27.20;60.90
41953;DHT22;63613;28.200;112.870;2023-06-05T02:06:17;27.20;60.80
41953;DHT22;63613;28.200;112.870;2023-06-05T02:08:43;27.20;60.90
41953;DHT22;63613;28.200;112.870;2023-06-05T02:11:30;27.20;60.80
41953;DHT22;63613;28.200;112.870;2023-06-05T02:13:57;27.20;60.80
41953;DHT22;63613;28.200;112.870;2023-06-05T02:16:26;27.20;60.90
41953;DHT22;63613;28.200;112.870;2023-06-05T02:18:52;27.30;60.80
41953;DHT22;63613;28.200;112.870;2023-06-05T02:21:19;27.30;60.80
41953;DHT22;63613;28.200;112.870;2023-06-05T02:23:46;27.30;60.80
41953;DHT22;63613;28.200;112.870;2023-06-05T02:26:13;27.30;60.80
41953;DHT22;63613;28.200;112.870;2023-06-05T02:28:42;27.30;60.80
41953;DHT22;63613;28.200;112.870;2023-06-05T02:31:09;27.30;60.80
41953;DHT22;63613;28.200;112.870;2023-06-05T02:33:42;27.30;60.80
41953;DHT22;63613;28.200;112.870;2023-06-05T02:36:09;27.20;60.80
41953;DHT22;63613;28.200;112.870;2023-06-05T02:38:36;27.30;60.80
41953;DHT22;63613;28.200;112.870;2023-06-05T02:41:04;27.30;60.70
41953;DHT22;63613;28.200;112.870;2023-06-05T02:43:31;27.30;60.70
41953;DHT22;63613;28.200;112.870;2023-06-05T02:45:58;27.30;60.70
41953;DHT22;63613;28.200;112.870;2023-06-05T02:48:25;27.20;60.80
41953;DHT22;63613;28.200;112.870;2023-06-05T02:50:52;27.20;60.80
41953;DHT22;63613;28.200;112.870;2023-06-05T02:53:18;27.20;60.80
41953;DHT22;63613;28.200;112.870;2023-06-05T02:55:46;27.30;60.80
41953;DHT22;63613;28.200;112.870;2023-06-05T02:58:14;27.30;60.80
41953;DHT22;63613;28.200;112.870;2023-06-05T03:01:01;27.20;60.80
41953;DHT22;63613;28.200;112.870;2023-06-05T03:03:30;27.20;60.80
41953;DHT22;63613;28.200;112.870;2023-06-05T03:05:58;27.20;60.80
41953;DHT22;63613;28.200;112.870;2023-06-05T03:08:31;27.20;60.90
41953;DHT22;63613;28.200;112.870;2023-06-05T03:11:02;27.20;60.90
41953;DHT22;63613;28.200;112.870;2023-06-05T03:13:30;27.20;60.90
41953;DHT22;63613;28.200;112.870;2023-06-05T03:15:58;27.20;60.80
41953;DHT22;63613;28.200;112.870;2023-06-05T03:18:30;27.20;61.00
41953;DHT22;63613;28.200;112.870;2023-06-05T03:20:57;27.20;61.20
41953;DHT22;63613;28.200;112.870;2023-06-05T03:23:29;27.20;61.50
41953;DHT22;63613;28.200;112.870;2023-06-05T03:25:56;27.20;61.70
41953;DHT22;63613;28.200;112.870;2023-06-05T03:28:24;27.20;61.70
41953;DHT22;63613;28.200;112.870;2023-06-05T03:31:10;27.20;62.10
41953;DHT22;63613;28.200;112.870;2023-06-05T03:33:38;27.20;62.10
41953;DHT22;63613;28.200;112.870;2023-06-05T03:36:05;27.20;62.00
41953;DHT22;63613;28.200;112.870;2023-06-05T03:38:33;27.10;62.20
41953;DHT22;63613;28.200;112.870;2023-06-05T03:40:59;27.10;62.10
41953;DHT22;63613;28.200;112.870;2023-06-05T03:43:26;27.00;62.30
41953;DHT22;63613;28.200;112.870;2023-06-05T03:45:53;27.10;62.20
41953;DHT22;63613;28.200;112.870;2023-06-05T03:48:39;26.90;62.40
41953;DHT22;63613;28.200;112.870;2023-06-05T03:51:06;27.00;62.40
41953;DHT22;63613;28.200;112.870;2023-06-05T03:53:33;26.80;62.80
41953;DHT22;63613;28.200;112.870;2023-06-05T03:56:19;26.90;62.60
41953;DHT22;63613;28.200;112.870;2023-06-05T03:58:47;26.90;62.40
41953;DHT22;63613;28.200;112.870;2023-06-05T04:01:35;26.90;62.60
41953;DHT22;63613;28.200;112.870;2023-06-05T04:04:06;26.90;62.80
41953;DHT22;63613;28.200;112.870;2023-06-05T04:06:35;26.90;62.90
41953;DHT22;63613;28.200;112.870;2023-06-05T04:09:24;26.90;62.90
41953;DHT22;63613;28.200;112.870;2023-06-05T04:11:51;26.80;62.90
41953;DHT22;63613;28.200;112.870;2023-06-05T04:14:20;26.80;62.90
41953;DHT22;63613;28.200;112.870;2023-06-05T04:16:46;26.90;62.90
41953;DHT22;63613;28.200;112.870;2023-06-05T04:19:13;26.80;62.90
41953;DHT22;63613;28.200;112.870;2023-06-05T04:21:43;26.80;62.90
41953;DHT22;63613;28.200;112.870;2023-06-05T04:24:14;26.80;63.20
41953;DHT22;63613;28.200;112.870;2023-06-05T04:26:41;26.80;62.90
41953;DHT22;63613;28.200;112.870;2023-06-05T04:29:08;26.80;63.00
41953;DHT22;63613;28.200;112.870;2023-06-05T04:31:46;26.80;63.00
41953;DHT22;63613;28.200;112.870;2023-06-05T04:34:16;26.80;63.00
41953;DHT22;63613;28.200;112.870;2023-06-05T04:36:44;26.80;62.50
41953;DHT22;63613;28.200;112.870;2023-06-05T04:39:16;26.80;62.40
41953;DHT22;63613;28.200;112.870;2023-06-05T04:41:47;26.90;62.50
41953;DHT22;63613;28.200;112.870;2023-06-05T04:44:15;26.90;62.60
41953;DHT22;63613;28.200;112.870;2023-06-05T04:46:45;26.90;62.70
41953;DHT22;63613;28.200;112.870;2023-06-05T04:49:15;26.90;62.90
41953;DHT22;63613;28.200;112.870;2023-06-05T04:51:42;26.90;63.20
41953;DHT22;63613;28.200;112.870;2023-06-05T04:54:10;27.00;63.50
41953;DHT22;63613;28.200;112.870;2023-06-05T04:56:38;26.70;63.60
41953;DHT22;63613;28.200;112.870;2023-06-05T04:59:06;26.80;63.50
41953;DHT22;63613;28.200;112.870;2023-06-05T05:01:33;26.90;63.40
41953;DHT22;63613;28.200;112.870;2023-06-05T05:04:03;26.90;63.20
41953;DHT22;63613;28.200;112.870;2023-06-05T05:06:29;26.90;63.00
41953;DHT22;63613;28.200;112.870;2023-06-05T05:08:57;26.90;62.70
41953;DHT22;63613;28.200;112.870;2023-06-05T05:11:24;26.60;63.40
41953;DHT22;63613;28.200;112.870;2023-06-05T05:13:52;26.70;63.00
41953;DHT22;63613;28.200;112.870;2023-06-05T05:16:19;26.70;62.80
41953;DHT22;63613;28.200;112.870;2023-06-05T05:18:47;26.80;62.60
41953;DHT22;63613;28.200;112.870;2023-06-05T05:21:14;26.70;62.40
41953;DHT22;63613;28.200;112.870;2023-06-05T05:23:43;26.80;62.30
41953;DHT22;63613;28.200;112.870;2023-06-05T05:26:10;26.80;62.40
41953;DHT22;63613;28.200;112.870;2023-06-05T05:28:38;26.70;62.90
41953;DHT22;63613;28.200;112.870;2023-06-05T05:31:06;26.70;62.90
41953;DHT22;63613;28.200;112.870;2023-06-05T05:33:34;26.80;62.90
41953;DHT22;63613;28.200;112.870;2023-06-05T05:36:02;26.80;62.90
41953;DHT22;63613;28.200;112.870;2023-06-05T05:38:28;26.70;63.10
41953;DHT22;63613;28.200;112.870;2023-06-05T05:40:55;26.70;63.20
41953;DHT22;63613;28.200;112.870;2023-06-05T05:43:23;26.80;63.20
41953;DHT22;63613;28.200;112.870;2023-06-05T05:46:10;26.80;63.20
41953;DHT22;63613;28.200;112.870;2023-06-05T05:48:37;26.70;63.10
41953;DHT22;63613;28.200;112.870;2023-06-05T05:51:08;26.80;63.00
41953;DHT22;63613;28.200;112.870;2023-06-05T05:53:35;26.80;62.90
41953;DHT22;63613;28.200;112.870;2023-06-05T05:56:03;26.80;62.80
41953;DHT22;63613;28.200;112.870;2023-06-05T05:58:50;26.80;62.50
41953;DHT22;63613;28.200;112.870;2023-06-05T06:01:17;26.70;62.60
41953;DHT22;63613;28.200;112.870;2023-06-05T06:03:44;26.70;62.70
41953;DHT22;63613;28.200;112.870;2023-06-05T06:06:11;26.70;62.70
41953;DHT22;63613;28.200;112.870;2023-06-05T06:08:39;26.70;62.80
41953;DHT22;63613;28.200;112.870;2023-06-05T06:11:06;26.70;62.70
41953;DHT22;63613;28.200;112.870;2023-06-05T06:13:35;26.70;62.70
41953;DHT22;63613;28.200;112.870;2023-06-05T06:16:03;26.70;62.70
41953;DHT22;63613;28.200;112.870;2023-06-05T06:18:30;26.70;62.80
41953;DHT22;63613;28.200;112.870;2023-06-05T06:20:57;26.80;62.80
41953;DHT22;63613;28.200;112.870;2023-06-05T06:23:24;26.70;62.90
41953;DHT22;63613;28.200;112.870;2023-06-05T06:25:51;26.80;62.90
41953;DHT22;63613;28.200;112.870;2023-06-05T06:28:20;26.70;62.80
41953;DHT22;63613;28.200;112.870;2023-06-05T06:30:47;26.70;62.80
41953;DHT22;63613;28.200;112.870;2023-06-05T06:33:15;26.70;62.70
41953;DHT22;63613;28.200;112.870;2023-06-05T06:35:42;26.70;62.80
41953;DHT22;63613;28.200;112.870;2023-06-05T06:38:09;26.70;62.60
41953;DHT22;63613;28.200;112.870;2023-06-05T06:40:37;26.70;62.60
41953;DHT22;63613;28.200;112.870;2023-06-05T06:43:04;26.60;62.50
41953;DHT22;63613;28.200;112.870;2023-06-05T06:45:30;26.70;62.30
41953;DHT22;63613;28.200;112.870;2023-06-05T06:47:57;26.60;62.50
41953;DHT22;63613;28.200;112.870;2023-06-05T06:50:27;26.60;62.60
41953;DHT22;63613;28.200;112.870;2023-06-05T06:52:55;26.40;63.20
41953;DHT22;63613;28.200;112.870;2023-06-05T06:55:29;26.50;62.80
41953;DHT22;63613;28.200;112.870;2023-06-05T06:57:56;26.50;63.00
41953;DHT22;63613;28.200;112.870;2023-06-05T07:00:26;26.50;62.80
41953;DHT22;63613;28.200;112.870;2023-06-05T07:02:56;26.40;62.60
41953;DHT22;63613;28.200;112.870;2023-06-05T07:05:23;26.40;62.70
41953;DHT22;63613;28.200;112.870;2023-06-05T07:07:50;26.50;62.80
41953;DHT22;63613;28.200;112.870;2023-06-05T07:10:17;26.50;62.70
41953;DHT22;63613;28.200;112.870;2023-06-05T07:12:43;26.50;62.80
41953;DHT22;63613;28.200;112.870;2023-06-05T07:15:10;26.50;62.90
41953;DHT22;63613;28.200;112.870;2023-06-05T07:17:39;26.60;63.10
41953;DHT22;63613;28.200;112.870;2023-06-05T07:20:07;26.50;62.90
41953;DHT22;63613;28.200;112.870;2023-06-05T07:22:35;26.40;62.90
41953;DHT22;63613;28.200;112.870;2023-06-05T07:25:02;26.50;62.80
41953;DHT22;63613;28.200;112.870;2023-06-05T07:27:29;26.40;62.70
41953;DHT22;63613;28.200;112.870;2023-06-05T07:29:56;26.40;62.90
41953;DHT22;63613;28.200;112.870;2023-06-05T07:32:23;26.50;62.80
41953;DHT22;63613;28.200;112.870;2023-06-05T07:34:51;26.50;62.80
41953;DHT22;63613;28.200;112.870;2023-06-05T07:37:18;26.50;62.90
41953;DHT22;63613;28.200;112.870;2023-06-05T07:39:45;26.50;62.90
41953;DHT22;63613;28.200;112.870;2023-06-05T07:42:16;26.40;62.90
41953;DHT22;63613;28.200;112.870;2023-06-05T07:44:43;26.50;62.90
41953;DHT22;63613;28.200;112.870;2023-06-05T07:47:09;26.50;62.90
41953;DHT22;63613;28.200;112.870;2023-06-05T07:49:36;26.50;62.80
41953;DHT22;63613;28.200;112.870;2023-06-05T07:52:03;26.60;62.80
41953;DHT22;63613;28.200;112.870;2023-06-05T07:54:30;26.50;62.80
41953;DHT22;63613;28.200;112.870;2023-06-05T07:56:57;26.50;62.80
41953;DHT22;63613;28.200;112.870;2023-06-05T07:59:24;26.50;62.90
41953;DHT22;63613;28.200;112.870;2023-06-05T08:01:54;26.60;62.80
41953;DHT22;63613;28.200;112.870;2023-06-05T08:04:28;26.50;62.80
41953;DHT22;63613;28.200;112.870;2023-06-05T08:06:55;26.60;62.60
41953;DHT22;63613;28.200;112.870;2023-06-05T08:09:22;26.50;62.70
41953;DHT22;63613;28.200;112.870;2023-06-05T08:11:49;26.50;62.40
41953;DHT22;63613;28.200;112.870;2023-06-05T08:14:16;26.50;62.50
41953;DHT22;63613;28.200;112.870;2023-06-05T08:16:43;26.50;62.60
41953;DHT22;63613;28.200;112.870;2023-06-05T08:19:11;26.60;62.40
41953;DHT22;63613;28.200;112.870;2023-06-05T08:21:38;26.50;62.30
41953;DHT22;63613;28.200;112.870;2023-06-05T08:24:05;26.50;62.30
41953;DHT22;63613;28.200;112.870;2023-06-05T08:26:33;26.50;62.20
41953;DHT22;63613;28.200;112.870;2023-06-05T08:29:02;26.50;62.30
41953;DHT22;63613;28.200;112.870;2023-06-05T08:31:29;26.20;62.70
41953;DHT22;63613;28.200;112.870;2023-06-05T08:33:56;26.40;62.90
41953;DHT22;63613;28.200;112.870;2023-06-05T08:36:22;26.40;62.70
41953;DHT22;63613;28.200;112.870;2023-06-05T08:38:50;26.40;62.80
41953;DHT22;63613;28.200;112.870;2023-06-05T08:41:17;26.40;62.90
41953;DHT22;63613;28.200;112.870;2023-06-05T08:43:44;26.50;62.70
41953;DHT22;63613;28.200;112.870;2023-06-05T08:46:12;26.60;62.60
41953;DHT22;63613;28.200;112.870;2023-06-05T08:48:47;26.50;62.70
41953;DHT22;63613;28.200;112.870;2023-06-05T08:51:18;26.50;62.60
41953;DHT22;63613;28.200;112.870;2023-06-05T08:56:18;26.50;62.70
41953;DHT22;63613;28.200;112.870;2023-06-05T08:58:51;26.30;63.10
41953;DHT22;63613;28.200;112.870;2023-06-05T09:01:19;26.30;62.90
41953;DHT22;63613;28.200;112.870;2023-06-05T09:03:47;26.40;62.90
41953;DHT22;63613;28.200;112.870;2023-06-05T09:06:15;26.30;63.00
41953;DHT22;63613;28.200;112.870;2023-06-05T09:08:42;26.30;63.30
41953;DHT22;63613;28.200;112.870;2023-06-05T09:11:28;26.20;63.50
41953;DHT22;63613;28.200;112.870;2023-06-05T09:13:59;26.30;63.40
41953;DHT22;63613;28.200;112.870;2023-06-05T09:16:40;26.30;63.50
41953;DHT22;63613;28.200;112.870;2023-06-05T09:19:09;26.20;63.50
41953;DHT22;63613;28.200;112.870;2023-06-05T09:21:37;26.30;63.30
41953;DHT22;63613;28.200;112.870;2023-06-05T09:29:30;26.30;63.40
41953;DHT22;63613;28.200;112.870;2023-06-05T09:32:01;26.30;63.40
41953;DHT22;63613;28.200;112.870;2023-06-05T09:34:40;26.30;63.50
41953;DHT22;63613;28.200;112.870;2023-06-05T09:37:11;26.20;63.90
41953;DHT22;63613;28.200;112.870;2023-06-05T09:39:41;26.30;63.90
41953;DHT22;63613;28.200;112.870;2023-06-05T09:42:12;26.30;63.80
41953;DHT22;63613;28.200;112.870;2023-06-05T09:44:38;26.30;63.70
41953;DHT22;63613;28.200;112.870;2023-06-05T09:47:08;26.30;63.70
41953;DHT22;63613;28.200;112.870;2023-06-05T09:52:13;26.30;63.60
41953;DHT22;63613;28.200;112.870;2023-06-05T09:54:44;26.30;63.70
41953;DHT22;63613;28.200;112.870;2023-06-05T09:57:13;26.30;63.60
41953;DHT22;63613;28.200;112.870;2023-06-05T09:59:54;26.30;63.90
41953;DHT22;63613;28.200;112.870;2023-06-05T10:02:25;26.30;63.90
41953;DHT22;63613;28.200;112.870;2023-06-05T10:05:12;26.30;63.90
41953;DHT22;63613;28.200;112.870;2023-06-05T10:07:39;26.30;63.80
41953;DHT22;63613;28.200;112.870;2023-06-05T10:10:10;26.30;63.90
41953;DHT22;63613;28.200;112.870;2023-06-05T10:12:39;26.20;64.20
41953;DHT22;63613;28.200;112.870;2023-06-05T10:15:08;26.20;64.40
41953;DHT22;63613;28.200;112.870;2023-06-05T10:17:36;26.20;64.40
41953;DHT22;63613;28.200;112.870;2023-06-05T10:20:06;26.20;64.40
41953;DHT22;63613;28.200;112.870;2023-06-05T10:22:35;26.20;64.30
41953;DHT22;63613;28.200;112.870;2023-06-05T10:25:06;26.20;64.40
41953;DHT22;63613;28.200;112.870;2023-06-05T10:36:06;26.20;64.70
41953;DHT22;63613;28.200;112.870;2023-06-05T10:38:38;26.20;64.90
41953;DHT22;63613;28.200;112.870;2023-06-05T10:41:06;26.20;64.90
41953;DHT22;63613;28.200;112.870;2023-06-05T10:43:47;26.10;64.70
41953;DHT22;63613;28.200;112.870;2023-06-05T10:46:32;26.20;64.80
41953;DHT22;63613;28.200;112.870;2023-06-05T10:51:47;26.20;65.50
41953;DHT22;63613;28.200;112.870;2023-06-05T10:57:05;26.20;65.10
41953;DHT22;63613;28.200;112.870;2023-06-05T10:59:36;26.20;65.00
41953;DHT22;63613;28.200;112.870;2023-06-05T11:07:25;26.20;65.40
41953;DHT22;63613;28.200;112.870;2023-06-05T11:10:16;26.10;65.10
41953;DHT22;63613;28.200;112.870;2023-06-05T11:15:15;26.10;65.20
41953;DHT22;63613;28.200;112.870;2023-06-05T11:17:44;26.00;65.30
41953;DHT22;63613;28.200;112.870;2023-06-05T11:25:28;26.10;65.00
41953;DHT22;63613;28.200;112.870;2023-06-05T11:27:57;26.10;64.90
41953;DHT22;63613;28.200;112.870;2023-06-05T11:30:31;26.20;65.00
41953;DHT22;63613;28.200;112.870;2023-06-05T11:33:12;26.20;64.90
41953;DHT22;63613;28.200;112.870;2023-06-05T11:35:47;26.20;64.60
41953;DHT22;63613;28.200;112.870;2023-06-05T11:38:19;26.10;64.40
41953;DHT22;63613;28.200;112.870;2023-06-05T11:40:48;26.00;64.50
41953;DHT22;63613;28.200;112.870;2023-06-05T11:43:15;26.00;64.60
41953;DHT22;63613;28.200;112.870;2023-06-05T11:45:49;26.10;64.50
41953;DHT22;63613;28.200;112.870;2023-06-05T11:48:17;26.00;64.50
41953;DHT22;63613;28.200;112.870;2023-06-05T11:53:20;26.10;64.70
41953;DHT22;63613;28.200;112.870;2023-06-05T11:55:48;26.10;64.70
41953;DHT22;63613;28.200;112.870;2023-06-05T11:58:28;26.10;64.70
41953;DHT22;63613;28.200;112.870;2023-06-05T12:04:07;26.00;65.00
41953;DHT22;63613;28.200;112.870;2023-06-05T12:06:40;26.00;64.90
41953;DHT22;63613;28.200;112.870;2023-06-05T12:09:09;26.00;64.80
41953;DHT22;63613;28.200;112.870;2023-06-05T12:11:37;26.10;64.80
41953;DHT22;63613;28.200;112.870;2023-06-05T12:14:09;26.10;64.70
41953;DHT22;63613;28.200;112.870;2023-06-05T12:16:56;26.00;64.60
41953;DHT22;63613;28.200;112.870;2023-06-05T12:19:25;26.10;64.50
41953;DHT22;63613;28.200;112.870;2023-06-05T12:22:02;26.00;64.50
41953;DHT22;63613;28.200;112.870;2023-06-05T12:24:30;26.00;64.60
41953;DHT22;63613;28.200;112.870;2023-06-05T12:27:02;26.00;64.70
41953;DHT22;63613;28.200;112.870;2023-06-05T12:29:31;26.10;64.60
41953;DHT22;63613;28.200;112.870;2023-06-05T12:32:01;26.10;64.50
41953;DHT22;63613;28.200;112.870;2023-06-05T12:34:48;26.20;64.50
41953;DHT22;63613;28.200;112.870;2023-06-05T12:37:29;26.20;64.50
41953;DHT22;63613;28.200;112.870;2023-06-05T12:40:02;26.20;64.50
41953;DHT22;63613;28.200;112.870;2023-06-05T12:42:54;26.20;64.40
41953;DHT22;63613;28.200;112.870;2023-06-05T12:45:22;26.20;64.40
41953;DHT22;63613;28.200;112.870;2023-06-05T12:47:49;26.20;64.40
41953;DHT22;63613;28.200;112.870;2023-06-05T12:50:17;26.20;64.40
41953;DHT22;63613;28.200;112.870;2023-06-05T12:52:45;26.20;64.40
41953;DHT22;63613;28.200;112.870;2023-06-05T12:55:13;26.20;64.30
41953;DHT22;63613;28.200;112.870;2023-06-05T12:57:42;26.20;64.30
41953;DHT22;63613;28.200;112.870;2023-06-05T13:00:17;26.30;64.30
41953;DHT22;63613;28.200;112.870;2023-06-05T13:02:45;26.30;64.40
41953;DHT22;63613;28.200;112.870;2023-06-05T13:05:12;26.20;64.40
41953;DHT22;63613;28.200;112.870;2023-06-05T13:07:40;26.20;64.40
41953;DHT22;63613;28.200;112.870;2023-06-05T13:10:08;26.30;64.40
41953;DHT22;63613;28.200;112.870;2023-06-05T13:12:37;26.30;64.40
41953;DHT22;63613;28.200;112.870;2023-06-05T13:15:05;26.30;64.40
41953;DHT22;63613;28.200;112.870;2023-06-05T13:17:33;26.30;64.40
41953;DHT22;63613;28.200;112.870;2023-06-05T13:20:05;26.30;64.50
41953;DHT22;63613;28.200;112.870;2023-06-05T13:22:43;26.20;64.40
41953;DHT22;63613;28.200;112.870;2023-06-05T13:25:10;26.30;64.40
41953;DHT22;63613;28.200;112.870;2023-06-05T13:27:38;26.30;64.50
41953;DHT22;63613;28.200;112.870;2023-06-05T13:30:05;26.30;64.40
41953;DHT22;63613;28.200;112.870;2023-06-05T13:32:38;26.30;64.50
41953;DHT22;63613;28.200;112.870;2023-06-05T13:35:06;26.30;64.50
41953;DHT22;63613;28.200;112.870;2023-06-05T13:37:34;26.30;64.50
41953;DHT22;63613;28.200;112.870;2023-06-05T13:40:02;26.30;64.50
41953;DHT22;63613;28.200;112.870;2023-06-05T13:42:33;26.30;64.50
41953;DHT22;63613;28.200;112.870;2023-06-05T13:45:00;26.30;64.50
41953;DHT22;63613;28.200;112.870;2023-06-05T13:47:26;26.30;64.50
41953;DHT22;63613;28.200;112.870;2023-06-05T13:49:53;26.30;64.50
41953;DHT22;63613;28.200;112.870;2023-06-05T13:52:40;26.30;64.60
41953;DHT22;63613;28.200;112.870;2023-06-05T13:55:10;26.30;64.60
41953;DHT22;63613;28.200;112.870;2023-06-05T13:57:38;26.30;64.60
41953;DHT22;63613;28.200;112.870;2023-06-05T14:00:06;26.30;64.60
41953;DHT22;63613;28.200;112.870;2023-06-05T14:02:33;26.30;64.50
41953;DHT22;63613;28.200;112.870;2023-06-05T14:05:02;26.30;64.50
41953;DHT22;63613;28.200;112.870;2023-06-05T14:07:30;26.40;64.50
41953;DHT22;63613;28.200;112.870;2023-06-05T14:10:10;26.30;64.50
41953;DHT22;63613;28.200;112.870;2023-06-05T14:12:37;26.30;64.50
41953;DHT22;63613;28.200;112.870;2023-06-05T14:15:25;26.30;64.50
41953;DHT22;63613;28.200;112.870;2023-06-05T14:17:54;26.30;64.50
41953;DHT22;63613;28.200;112.870;2023-06-05T14:20:21;26.30;64.50
41953;DHT22;63613;28.200;112.870;2023-06-05T14:22:48;26.30;64.50
41953;DHT22;63613;28.200;112.870;2023-06-05T14:25:15;26.30;64.50
41953;DHT22;63613;28.200;112.870;2023-06-05T14:27:42;26.30;64.50
41953;DHT22;63613;28.200;112.870;2023-06-05T14:30:13;26.30;64.40
41953;DHT22;63613;28.200;112.870;2023-06-05T14:32:42;26.30;64.50
41953;DHT22;63613;28.200;112.870;2023-06-05T14:35:11;26.30;64.50
41953;DHT22;63613;28.200;112.870;2023-06-05T14:37:38;26.30;64.50
41953;DHT22;63613;28.200;112.870;2023-06-05T14:40:12;26.30;64.50
41953;DHT22;63613;28.200;112.870;2023-06-05T14:42:40;26.30;64.50
41953;DHT22;63613;28.200;112.870;2023-06-05T14:45:08;26.30;64.50
41953;DHT22;63613;28.200;112.870;2023-06-05T14:47:37;26.30;64.50
41953;DHT22;63613;28.200;112.870;2023-06-05T14:50:07;26.30;64.50
41953;DHT22;63613;28.200;112.870;2023-06-05T14:52:35;26.30;64.60
41953;DHT22;63613;28.200;112.870;2023-06-05T14:55:07;26.30;64.60
41953;DHT22;63613;28.200;112.870;2023-06-05T14:57:35;26.30;64.60
41953;DHT22;63613;28.200;112.870;2023-06-05T15:00:06;26.30;64.60
41953;DHT22;63613;28.200;112.870;2023-06-05T15:02:34;26.40;64.60
41953;DHT22;63613;28.200;112.870;2023-06-05T15:05:02;26.30;64.60
41953;DHT22;63613;28.200;112.870;2023-06-05T15:07:40;26.30;64.60
41953;DHT22;63613;28.200;112.870;2023-06-05T15:10:08;26.30;64.60
41953;DHT22;63613;28.200;112.870;2023-06-05T15:12:39;26.40;64.60
41953;DHT22;63613;28.200;112.870;2023-06-05T15:15:07;26.30;64.60
41953;DHT22;63613;28.200;112.870;2023-06-05T15:17:34;26.30;64.60
41953;DHT22;63613;28.200;112.870;2023-06-05T15:20:08;26.30;64.70
41953;DHT22;63613;28.200;112.870;2023-06-05T15:22:37;26.30;64.60
41953;DHT22;63613;28.200;112.870;2023-06-05T15:25:25;26.30;64.60
41953;DHT22;63613;28.200;112.870;2023-06-05T15:27:56;26.30;64.60
41953;DHT22;63613;28.200;112.870;2023-06-05T15:30:23;26.30;64.70
41953;DHT22;63613;28.200;112.870;2023-06-05T15:32:51;26.30;64.80
41953;DHT22;63613;28.200;112.870;2023-06-05T15:35:23;26.30;64.90
41953;DHT22;63613;28.200;112.870;2023-06-05T15:37:50;26.30;65.10
41953;DHT22;63613;28.200;112.870;2023-06-05T15:40:17;26.30;65.00
41953;DHT22;63613;28.200;112.870;2023-06-05T15:42:44;26.30;64.90
41953;DHT22;63613;28.200;112.870;2023-06-05T15:45:34;26.30;64.80
41953;DHT22;63613;28.200;112.870;2023-06-05T15:48:03;26.20;64.70
41953;DHT22;63613;28.200;112.870;2023-06-05T15:50:31;26.20;64.50
41953;DHT22;63613;28.200;112.870;2023-06-05T15:52:59;26.20;64.20
41953;DHT22;63613;28.200;112.870;2023-06-05T15:55:26;26.20;64.00
41953;DHT22;63613;28.200;112.870;2023-06-05T15:57:55;26.20;63.80
41953;DHT22;63613;28.200;112.870;2023-06-05T16:00:22;26.20;63.60
41953;DHT22;63613;28.200;112.870;2023-06-05T16:02:51;26.20;63.40
41953;DHT22;63613;28.200;112.870;2023-06-05T16:05:22;26.20;63.40